createdAt,value
2023-03-12T00:02:46.811Z,98694.15
2023-03-12T00:07:49.439Z,98688.37
2023-03-12T00:12:52.414Z,98679.14
2023-03-12T00:17:55.118Z,98673.02
2023-03-12T00:22:57.762Z,98670.35
2023-03-12T00:28:00.253Z,98663.71
2023-03-12T00:33:02.829Z,98665.14
2023-03-12T00:38:05.317Z,98656.98
2023-03-12T00:43:07.826Z,98654.64
2023-03-12T00:48:10.382Z,98653.52
2023-03-12T00:53:12.886Z,98646.91
2023-03-12T00:58:15.375Z,98640.14
2023-03-12T01:03:18.953Z,98635.60
2023-03-12T01:08:22.570Z,98636.18
2023-03-12T01:13:25.145Z,98625.86
2023-03-12T01:18:27.667Z,98624.22
2023-03-12T01:23:30.374Z,98632.30
2023-03-12T01:28:32.907Z,98624.21
2023-03-12T01:33:35.493Z,98623.91
2023-03-12T01:38:37.990Z,98621.23
2023-03-12T01:43:40.776Z,98618.89
2023-03-12T01:48:48.323Z,98613.31
2023-03-12T01:53:56.159Z,98605.80
2023-03-12T01:59:02.638Z,98612.00
2023-03-12T02:04:05.661Z,98608.34
2023-03-12T02:09:08.515Z,98611.86
2023-03-12T02:14:11.137Z,98617.16
2023-03-12T02:19:27.299Z,98619.13
2023-03-12T02:24:43.456Z,98624.69
2023-03-12T02:29:46.436Z,98624.83
2023-03-12T02:34:50.618Z,98633.12
2023-03-12T02:40:05.790Z,98639.00
2023-03-12T02:45:08.624Z,98634.21
2023-03-12T02:50:11.654Z,98635.39
2023-03-12T02:55:14.154Z,98634.23
2023-03-12T03:00:17.551Z,98637.00
2023-03-12T03:05:21.368Z,98637.27
2023-03-12T03:10:23.894Z,98643.45
2023-03-12T03:15:27.130Z,98650.94
2023-03-12T03:20:30.870Z,98657.94
2023-03-12T03:25:33.905Z,98655.16
2023-03-12T03:30:36.494Z,98667.02
2023-03-12T03:35:39.111Z,98668.46
2023-03-12T03:40:41.703Z,98676.41
2023-03-12T03:45:44.833Z,98673.00
2023-03-12T03:50:47.853Z,98674.00
2023-03-12T03:55:50.343Z,98679.36
2023-03-12T04:00:54.141Z,98681.14
2023-03-12T04:05:59.967Z,98682.34
2023-03-12T04:11:11.655Z,98688.70
2023-03-12T04:16:14.783Z,98689.68
2023-03-12T04:21:17.420Z,98704.65
2023-03-12T04:26:20.342Z,98710.50
2023-03-12T04:31:22.873Z,98715.46
2023-03-12T04:36:25.657Z,98713.38
2023-03-12T04:41:28.195Z,98721.91
2023-03-12T04:46:32.251Z,98723.77
2023-03-12T04:51:34.870Z,98729.56
2023-03-12T04:56:37.374Z,98733.06
2023-03-12T05:01:40.029Z,98739.09
2023-03-12T05:06:42.526Z,98740.94
2023-03-12T05:11:45.099Z,98735.08
2023-03-12T05:16:47.683Z,98737.80
2023-03-12T05:21:50.345Z,98745.15
2023-03-12T05:26:52.846Z,98756.13
2023-03-12T05:31:55.553Z,98764.96
2023-03-12T05:36:58.649Z,98760.48
2023-03-12T05:42:01.162Z,98771.16
2023-03-12T05:47:03.775Z,98783.16
2023-03-12T05:52:06.804Z,98780.34
2023-03-12T05:57:09.293Z,98800.23
2023-03-12T06:02:11.926Z,98807.61
2023-03-12T06:07:14.450Z,98803.39
2023-03-12T06:12:16.932Z,98807.82
2023-03-12T06:17:19.432Z,98813.44
2023-03-12T06:22:22.065Z,98821.39
2023-03-12T06:27:24.606Z,98830.59
2023-03-12T06:32:27.337Z,98838.23
2023-03-12T06:37:30.379Z,98843.23
2023-03-12T06:42:33.691Z,98862.69
2023-03-12T06:47:36.184Z,98861.94
2023-03-12T06:52:40.454Z,98872.09
2023-03-12T06:57:42.934Z,98883.09
2023-03-12T07:02:45.622Z,98882.81
2023-03-12T07:07:48.209Z,98890.12
2023-03-12T07:12:50.861Z,98904.65
2023-03-12T07:17:53.693Z,98912.66
2023-03-12T07:22:56.502Z,98919.39
2023-03-12T07:27:59.369Z,98925.56
2023-03-12T07:33:03.724Z,98930.13
2023-03-12T07:38:07.468Z,98931.59
2023-03-12T07:43:12.253Z,98941.95
2023-03-12T07:48:15.039Z,98943.73
2023-03-12T07:53:17.766Z,98946.89
2023-03-12T07:58:20.519Z,98946.34
2023-03-12T08:03:23.732Z,98954.61
2023-03-12T08:08:27.478Z,98956.34
2023-03-12T08:13:30.627Z,98970.15
2023-03-12T08:18:33.485Z,98976.03
2023-03-12T08:23:36.316Z,98965.55
2023-03-12T08:28:39.441Z,98976.04
2023-03-12T08:33:43.498Z,98993.38
2023-03-12T08:38:46.526Z,98982.52
2023-03-12T08:43:49.634Z,98997.80
2023-03-12T08:48:52.360Z,99014.52
2023-03-12T08:53:55.175Z,99022.29
2023-03-12T08:58:59.254Z,99018.95
2023-03-12T09:04:03.454Z,99028.25
2023-03-12T09:09:08.978Z,99026.25
2023-03-12T09:19:34.651Z,99036.95
2023-03-12T09:24:37.235Z,99035.69
2023-03-12T09:29:57.099Z,99050.15
2023-03-12T09:35:02.009Z,99053.13
2023-03-12T09:40:07.889Z,99068.63
2023-03-12T09:45:25.125Z,99065.33
2023-03-12T09:50:40.436Z,99066.77
2023-03-12T09:55:47.365Z,99071.67
2023-03-12T10:00:51.967Z,99084.80
2023-03-12T10:06:20.070Z,99087.50
2023-03-12T10:11:40.997Z,99080.38
2023-03-12T10:17:02.817Z,99084.19
2023-03-12T10:22:24.154Z,99090.15
2023-03-12T10:27:29.138Z,99104.51
2023-03-12T10:32:43.789Z,99136.11
2023-03-12T10:37:50.258Z,99167.27
2023-03-12T10:42:53.391Z,99176.73
2023-03-12T10:48:00.588Z,99179.16
2023-03-12T10:53:35.318Z,99166.46
2023-03-12T10:58:39.660Z,99173.54
2023-03-12T11:03:43.389Z,99174.13
2023-03-12T11:09:16.112Z,99180.60
2023-03-12T11:14:23.103Z,99175.63
2023-03-12T11:19:32.863Z,99192.30
2023-03-12T11:24:35.867Z,99191.06
2023-03-12T11:29:44.647Z,99204.61
2023-03-12T11:34:49.384Z,99222.34
2023-03-12T11:40:11.915Z,99225.04
2023-03-12T11:45:27.807Z,99233.98
2023-03-12T11:50:55.936Z,99224.38
2023-03-12T11:56:12.230Z,99226.81
2023-03-12T12:01:32.408Z,99243.92
2023-03-12T12:07:13.517Z,99238.58
2023-03-12T12:12:31.238Z,99238.74
2023-03-12T12:17:56.543Z,99243.34
2023-03-12T12:23:22.714Z,99253.33
2023-03-12T12:28:58.749Z,99263.54
2023-03-12T12:34:30.779Z,99269.30
2023-03-12T12:39:38.989Z,99276.95
2023-03-12T12:44:48.107Z,99276.17
2023-03-12T12:49:57.620Z,99280.39
2023-03-12T12:55:11.524Z,99284.32
2023-03-12T13:01:09.775Z,99290.36
2023-03-12T13:06:12.417Z,99295.48
2023-03-12T13:11:19.369Z,99294.11
2023-03-12T13:16:37.700Z,99303.23
2023-03-12T13:22:18.456Z,99311.15
2023-03-12T13:27:41.281Z,99316.70
2023-03-12T13:32:49.956Z,99317.11
2023-03-12T13:37:52.469Z,99322.28
2023-03-12T13:43:33.209Z,99329.40
2023-03-12T13:48:36.797Z,99324.73
2023-03-12T13:53:40.731Z,99327.91
2023-03-12T13:58:57.090Z,99336.55
2023-03-12T14:04:04.326Z,99344.96
2023-03-12T14:09:24.445Z,99349.39
2023-03-12T14:14:49.005Z,99354.75
2023-03-12T14:19:59.443Z,99363.56
2023-03-12T14:25:14.047Z,99365.40
2023-03-12T14:30:24.276Z,99363.41
2023-03-12T14:35:33.565Z,99364.45
2023-03-12T14:41:04.651Z,99370.80
2023-03-12T14:46:18.585Z,99363.73
2023-03-12T14:51:24.683Z,99368.48
2023-03-12T14:56:35.205Z,99370.75
2023-03-12T15:01:40.046Z,99369.48
2023-03-12T15:06:49.053Z,99373.52
2023-03-12T15:11:55.651Z,99377.13
2023-03-12T15:17:00.394Z,99378.50
2023-03-12T15:22:04.684Z,99377.77
2023-03-12T15:27:19.263Z,99374.78
2023-03-12T15:32:24.974Z,99382.13
2023-03-12T15:37:35.196Z,99378.17
2023-03-12T15:42:41.471Z,99380.67
2023-03-12T15:47:45.285Z,99372.60
2023-03-12T15:53:25.566Z,99374.03
2023-03-12T15:58:31.568Z,99379.63
2023-03-12T16:03:34.091Z,99373.63
2023-03-12T16:08:43.237Z,99371.36
2023-03-12T16:13:48.534Z,99372.88
2023-03-12T16:18:51.131Z,99374.60
2023-03-12T16:23:53.672Z,99378.03
2023-03-12T16:28:56.246Z,99382.95
2023-03-12T16:33:59.073Z,99385.31
2023-03-12T16:39:01.830Z,99390.73
2023-03-12T16:44:07.256Z,99395.41
2023-03-12T16:49:15.415Z,99397.88
2023-03-12T16:54:17.974Z,99403.58
2023-03-12T16:59:26.822Z,99410.59
2023-03-12T17:04:29.455Z,99410.94
2023-03-12T17:09:32.167Z,99422.23
2023-03-12T17:14:34.812Z,99429.08
2023-03-12T17:19:37.478Z,99441.02
2023-03-12T17:24:40.009Z,99442.46
2023-03-12T17:29:42.626Z,99442.70
2023-03-12T17:34:45.291Z,99432.11
2023-03-12T17:39:48.321Z,99423.73
2023-03-12T17:44:51.127Z,99426.66
2023-03-12T17:49:53.741Z,99428.53
2023-03-12T17:54:56.279Z,99421.17
2023-03-12T17:59:59.491Z,99425.63
2023-03-12T18:05:02.233Z,99430.73
2023-03-12T18:10:07.517Z,99437.89
2023-03-12T18:15:13.069Z,99446.94
2023-03-12T18:20:25.893Z,99450.67
2023-03-12T18:25:36.586Z,99461.79
2023-03-12T18:30:39.335Z,99466.41
2023-03-12T18:35:43.651Z,99462.32
2023-03-12T18:40:46.202Z,99462.33
2023-03-12T18:45:49.769Z,99473.80
2023-03-12T18:50:52.719Z,99467.66
2023-03-12T18:55:57.606Z,99466.14
2023-03-12T19:01:01.737Z,99475.89
2023-03-12T19:06:10.480Z,99475.23
2023-03-12T19:11:15.275Z,99473.66
2023-03-12T19:16:21.873Z,99478.80
2023-03-12T19:21:24.740Z,99490.61
2023-03-12T19:26:27.471Z,99490.60
2023-03-12T19:31:30.128Z,99496.41
2023-03-12T19:36:32.648Z,99492.80
2023-03-12T19:41:35.235Z,99487.14
2023-03-12T19:46:37.879Z,99494.66
2023-03-12T19:51:41.195Z,99497.23
2023-03-12T19:56:43.740Z,99496.90
2023-03-12T20:01:46.242Z,99489.54
2023-03-12T20:06:48.963Z,99479.77
2023-03-12T20:11:51.469Z,99471.86
2023-03-12T20:16:53.980Z,99468.05
2023-03-12T20:21:57.223Z,99469.57
2023-03-12T20:26:59.823Z,99459.45
2023-03-12T20:32:02.439Z,99460.98
2023-03-12T20:37:05.046Z,99455.67
2023-03-12T20:42:10.038Z,99459.11
2023-03-12T20:47:12.585Z,99463.40
2023-03-12T20:52:15.119Z,99471.95
2023-03-12T20:57:17.692Z,99473.33
2023-03-12T21:02:20.453Z,99476.23
2023-03-12T21:07:23.029Z,99479.13
2023-03-12T21:12:25.678Z,99469.37
2023-03-12T21:17:28.250Z,99457.22
2023-03-12T21:22:31.960Z,99451.55
2023-03-12T21:27:47.961Z,99440.77
2023-03-12T21:32:52.262Z,99439.71
2023-03-12T21:37:56.192Z,99437.12
2023-03-12T21:42:58.706Z,99424.91
2023-03-12T21:48:01.230Z,99419.77
2023-03-12T21:53:11.631Z,99411.89
2023-03-12T21:58:20.307Z,99402.30
2023-03-12T22:03:22.858Z,99393.95
2023-03-12T22:08:25.557Z,99386.46
2023-03-12T22:13:28.148Z,99381.86
2023-03-12T22:18:30.691Z,99379.88
2023-03-12T22:23:36.981Z,99376.17
2023-03-12T22:28:39.633Z,99376.20
2023-03-12T22:33:42.141Z,99381.34
2023-03-12T22:38:45.274Z,99380.65
2023-03-12T22:43:49.814Z,99376.89
2023-03-12T22:48:54.746Z,99383.41
2023-03-12T22:53:57.459Z,99383.92
2023-03-12T22:59:00.042Z,99374.87
2023-03-12T23:04:03.986Z,99363.80
2023-03-12T23:09:06.728Z,99366.89
2023-03-12T23:14:09.257Z,99367.92
2023-03-12T23:19:11.763Z,99360.73
2023-03-12T23:24:14.265Z,99361.04
2023-03-12T23:29:16.890Z,99360.31
2023-03-12T23:34:19.440Z,99354.13
2023-03-12T23:39:22.067Z,99352.77
2023-03-12T23:44:24.796Z,99360.13
2023-03-12T23:49:27.322Z,99361.52
2023-03-12T23:54:29.771Z,99355.19
2023-03-12T23:59:32.304Z,99340.45
